createdAt,value
2022-09-23T00:03:17.984Z,83.87
2022-09-23T00:08:21.774Z,83.74
2022-09-23T00:13:26.784Z,84.82
2022-09-23T00:18:30.372Z,83.76
2022-09-23T00:23:34.687Z,83.80
2022-09-23T00:28:38.716Z,84.43
2022-09-23T00:33:42.443Z,84.00
2022-09-23T00:38:45.731Z,84.72
2022-09-23T00:43:50.261Z,84.07
2022-09-23T00:48:59.325Z,84.36
2022-09-23T00:54:03.451Z,85.97
2022-09-23T00:59:08.286Z,86.13
2022-09-23T01:04:11.866Z,86.66
2022-09-23T01:09:15.988Z,87.30
2022-09-23T01:14:43.571Z,86.09
2022-09-23T01:20:21.933Z,85.36
2022-09-23T01:25:42.315Z,86.82
2022-09-23T01:30:55.521Z,85.04
2022-09-23T01:36:20.137Z,84.75
2022-09-23T01:41:42.935Z,85.62
2022-09-23T01:47:14.548Z,85.66
2022-09-23T01:52:38.692Z,86.76
2022-09-23T01:57:49.145Z,85.53
2022-09-23T02:02:56.049Z,85.89
2022-09-23T02:08:03.775Z,86.89
2022-09-23T02:13:16.005Z,85.69
2022-09-23T02:18:27.371Z,87.36
2022-09-23T02:23:36.219Z,87.98
2022-09-23T02:28:48.910Z,87.95
2022-09-23T02:33:57.572Z,86.01
2022-09-23T02:39:04.360Z,87.08
2022-09-23T02:44:17.159Z,86.79
2022-09-23T02:49:23.996Z,87.80
2022-09-23T02:54:29.449Z,87.99
2022-09-23T02:59:33.459Z,88.02
2022-09-23T03:04:58.880Z,87.11
2022-09-23T03:10:19.835Z,88.02
2022-09-23T03:15:32.372Z,88.49
2022-09-23T03:20:45.480Z,88.54
2022-09-23T03:25:50.158Z,88.73
2022-09-23T03:30:54.070Z,89.05
2022-09-23T03:36:23.570Z,89.50
2022-09-23T03:41:32.484Z,89.93
2022-09-23T03:46:49.956Z,89.80
2022-09-23T03:52:00.524Z,89.65
2022-09-23T03:57:04.247Z,88.19
2022-09-23T04:02:08.456Z,89.03
2022-09-23T04:07:12.591Z,89.31
2022-09-23T04:12:17.506Z,89.68
2022-09-23T04:17:21.025Z,87.32
2022-09-23T04:22:25.349Z,88.52
2022-09-23T04:27:28.819Z,89.85
2022-09-23T04:32:32.225Z,90.42
2022-09-23T04:37:35.450Z,90.17
2022-09-23T04:42:38.863Z,90.18
2022-09-23T04:47:44.700Z,89.20
2022-09-23T04:52:48.139Z,88.65
2022-09-23T04:57:51.633Z,88.65
2022-09-23T05:02:55.179Z,88.18
2022-09-23T05:08:00.106Z,88.93
2022-09-23T05:13:03.630Z,89.11
2022-09-23T05:18:07.170Z,89.18
2022-09-23T05:23:12.808Z,89.22
2022-09-23T05:28:20.829Z,88.45
2022-09-23T05:33:24.443Z,88.98
2022-09-23T05:38:30.630Z,89.25
2022-09-23T05:43:35.570Z,89.55
2022-09-23T05:48:40.128Z,89.67
2022-09-23T05:53:47.076Z,88.27
2022-09-23T05:58:54.802Z,89.37
2022-09-23T06:04:00.188Z,89.64
2022-09-23T06:09:05.685Z,90.09
2022-09-23T06:14:12.621Z,89.04
2022-09-23T06:19:17.988Z,89.12
2022-09-23T06:24:27.211Z,86.77
2022-09-23T06:29:33.938Z,86.96
2022-09-23T06:34:48.659Z,88.67
2022-09-23T06:39:56.654Z,89.14
2022-09-23T06:45:00.444Z,88.80
2022-09-23T06:50:05.047Z,88.58
2022-09-23T06:55:10.408Z,89.34
2022-09-23T07:00:14.574Z,89.25
2022-09-23T07:05:18.192Z,89.01
2022-09-23T07:10:22.411Z,89.45
2022-09-23T07:15:26.050Z,87.74
2022-09-23T07:20:30.414Z,87.43
2022-09-23T07:25:37.403Z,87.37
2022-09-23T07:30:50.585Z,86.15
2022-09-23T07:35:58.265Z,86.35
2022-09-23T07:41:05.006Z,85.96
2022-09-23T07:46:12.450Z,85.78
2022-09-23T07:51:21.723Z,85.01
2022-09-23T07:56:29.998Z,84.42
2022-09-23T08:01:37.584Z,84.13
2022-09-23T08:06:50.918Z,83.31
2022-09-23T08:11:55.063Z,82.14
2022-09-23T08:17:06.646Z,82.20
2022-09-23T08:22:10.691Z,81.40
2022-09-23T08:27:16.145Z,79.80
2022-09-23T08:32:19.845Z,79.23
2022-09-23T08:37:23.452Z,78.11
2022-09-23T08:42:32.782Z,75.96
2022-09-23T08:47:47.908Z,73.66
2022-09-23T08:52:55.505Z,74.49
2022-09-23T08:58:23.948Z,71.09
2022-09-23T09:03:31.846Z,70.36
2022-09-23T09:08:40.109Z,70.95
2022-09-23T09:13:56.461Z,72.53
2022-09-23T09:19:01.636Z,73.65
2022-09-23T09:24:15.243Z,72.19
2022-09-23T09:29:41.781Z,68.97
2022-09-23T09:34:56.530Z,69.61
2022-09-23T09:40:00.348Z,69.16
2022-09-23T09:45:11.382Z,69.77
2022-09-23T09:50:21.836Z,66.46
2022-09-23T09:55:29.095Z,63.88
2022-09-23T10:00:44.371Z,63.46
2022-09-23T10:05:50.564Z,66.22
2022-09-23T10:10:59.875Z,64.88
2022-09-23T10:16:04.813Z,64.47
2022-09-23T10:21:17.092Z,64.24
2022-09-23T10:26:35.650Z,59.78
2022-09-23T10:31:39.076Z,58.36
2022-09-23T10:36:56.447Z,60.94
2022-09-23T10:42:28.714Z,61.54
2022-09-23T10:48:10.978Z,58.38
2022-09-23T10:53:42.434Z,59.52
2022-09-23T10:58:51.894Z,58.05
2022-09-23T11:04:22.403Z,57.22
2022-09-23T11:09:47.600Z,56.07
2022-09-23T11:15:03.281Z,56.77
2022-09-23T11:20:18.864Z,56.84
2022-09-23T11:25:31.464Z,54.18
2022-09-23T11:31:09.498Z,52.48
2022-09-23T11:36:25.553Z,52.33
2022-09-23T11:41:31.959Z,54.01
2022-09-23T11:46:47.958Z,53.90
2022-09-23T11:52:23.357Z,51.99
2022-09-23T11:57:42.709Z,51.07
2022-09-23T12:03:18.636Z,50.18
2022-09-23T12:08:34.905Z,49.27
2022-09-23T12:13:47.458Z,51.73
2022-09-23T12:19:17.688Z,50.48
2022-09-23T12:24:39.482Z,50.51
2022-09-23T12:29:42.887Z,49.48
2022-09-23T12:34:50.181Z,48.20
2022-09-23T12:39:54.661Z,49.21
2022-09-23T12:45:35.077Z,48.81
2022-09-23T12:51:06.936Z,47.45
2022-09-23T12:56:19.006Z,49.11
2022-09-23T13:01:24.929Z,47.76
2022-09-23T13:06:38.921Z,49.82
2022-09-23T13:11:44.714Z,51.63
2022-09-23T13:16:49.876Z,51.66
2022-09-23T13:22:09.809Z,51.30
2022-09-23T13:27:33.623Z,50.69
2022-09-23T13:32:45.541Z,48.21
2022-09-23T13:37:50.162Z,49.03
2022-09-23T13:43:03.980Z,48.29
2022-09-23T13:48:22.185Z,48.74
2022-09-23T13:53:35.571Z,49.34
2022-09-23T13:58:39.231Z,49.46
2022-09-23T14:03:45.100Z,47.12
2022-09-23T14:08:52.799Z,48.76
2022-09-23T14:13:57.912Z,49.92
2022-09-23T14:19:01.462Z,50.52
2022-09-23T14:24:18.617Z,48.68
2022-09-23T14:29:26.438Z,49.84
2022-09-23T14:34:42.131Z,49.95
2022-09-23T14:39:45.629Z,50.08
2022-09-23T14:44:50.829Z,50.69
2022-09-23T14:50:13.005Z,49.41
2022-09-23T14:55:18.217Z,48.01
2022-09-23T15:00:21.973Z,47.82
2022-09-23T15:05:44.085Z,50.29
2022-09-23T15:10:49.043Z,51.19
2022-09-23T15:15:56.026Z,52.30
2022-09-23T15:21:09.044Z,51.95
2022-09-23T15:26:21.026Z,53.97
2022-09-23T15:31:28.219Z,54.80
2022-09-23T15:36:35.303Z,55.42
2022-09-23T15:41:40.250Z,54.97
2022-09-23T15:46:48.949Z,58.88
2022-09-23T15:52:02.807Z,61.02
2022-09-23T15:57:16.916Z,61.96
2022-09-23T16:02:27.603Z,62.42
2022-09-23T16:07:31.469Z,63.47
2022-09-23T16:12:37.961Z,64.11
2022-09-23T16:18:08.513Z,64.02
2022-09-23T16:23:35.283Z,65.59
2022-09-23T16:28:43.319Z,65.71
2022-09-23T16:34:00.655Z,66.72
2022-09-23T16:39:15.262Z,68.53
2022-09-23T16:44:44.817Z,69.71
2022-09-23T16:50:44.528Z,70.97
2022-09-23T16:56:04.871Z,72.48
2022-09-23T17:01:41.701Z,73.52
2022-09-23T17:07:01.716Z,74.81
2022-09-23T17:12:35.864Z,76.18
2022-09-23T17:17:39.874Z,76.10
2022-09-23T17:22:49.109Z,74.91
2022-09-23T17:27:54.001Z,74.15
2022-09-23T17:32:57.860Z,73.49
2022-09-23T17:38:02.624Z,73.13
2022-09-23T17:43:14.987Z,72.67
2022-09-23T17:48:27.833Z,72.26
2022-09-23T17:53:45.871Z,73.14
2022-09-23T17:59:05.723Z,74.59
2022-09-23T18:04:18.196Z,76.15
2022-09-23T18:09:33.994Z,77.08
2022-09-23T18:20:03.553Z,79.65
2022-09-23T18:25:22.978Z,78.83
2022-09-23T18:30:41.636Z,78.69
2022-09-23T18:35:55.333Z,78.88
2022-09-23T18:41:07.905Z,80.56
2022-09-23T18:46:16.074Z,82.20
2022-09-23T18:51:36.390Z,81.72
2022-09-23T18:57:15.197Z,82.29
2022-09-23T19:02:40.954Z,82.76
2022-09-23T19:08:06.329Z,83.34
2022-09-23T19:18:59.386Z,83.83
2022-09-23T19:24:07.282Z,83.13
2022-09-23T19:29:19.840Z,83.07
2022-09-23T19:34:40.743Z,83.61
2022-09-23T19:39:53.669Z,83.87
2022-09-23T19:45:06.560Z,83.92
2022-09-23T19:50:39.309Z,84.01
2022-09-23T19:56:01.422Z,83.76
2022-09-23T20:07:12.442Z,83.63
2022-09-23T20:12:19.834Z,83.97
2022-09-23T20:17:30.132Z,84.07
2022-09-23T20:22:44.686Z,84.03
2022-09-23T20:28:04.928Z,83.90
2022-09-23T20:33:17.359Z,84.27
2022-09-23T20:38:28.532Z,84.40
2022-09-23T20:43:42.696Z,84.25
2022-09-23T20:48:57.271Z,84.59
2022-09-23T20:54:16.408Z,84.86
2022-09-23T20:59:22.097Z,85.02
2022-09-23T21:04:25.896Z,85.58
2022-09-23T21:09:36.029Z,86.00
2022-09-23T21:16:41.597Z,86.14
2022-09-23T21:21:02.209Z,85.80
2022-09-23T21:26:20.657Z,85.36
2022-09-23T21:31:33.968Z,85.59
2022-09-23T21:36:53.954Z,85.99
2022-09-23T21:42:10.834Z,85.84
2022-09-23T21:47:24.705Z,85.55
2022-09-23T21:52:56.225Z,85.68
2022-09-23T21:58:03.461Z,86.03
2022-09-23T22:03:13.861Z,86.35
2022-09-23T22:08:39.358Z,86.47
2022-09-23T22:14:04.440Z,86.72
2022-09-23T22:19:11.205Z,87.11
2022-09-23T22:24:15.458Z,87.01
2022-09-23T22:29:38.706Z,87.06
2022-09-23T22:34:52.588Z,87.15
2022-09-23T22:40:14.541Z,87.44
2022-09-23T22:45:18.665Z,87.49
2022-09-23T22:50:22.400Z,87.51
2022-09-23T22:55:26.330Z,87.74
2022-09-23T23:00:31.963Z,87.76
2022-09-23T23:05:42.792Z,87.80
2022-09-23T23:10:55.339Z,87.40
2022-09-23T23:16:04.586Z,87.59
2022-09-23T23:21:15.243Z,87.53
2022-09-23T23:26:28.180Z,87.42
2022-09-23T23:31:37.534Z,87.17
2022-09-23T23:36:50.870Z,87.39
2022-09-23T23:42:01.403Z,87.51
2022-09-23T23:47:09.738Z,87.39
2022-09-23T23:52:22.048Z,86.91
2022-09-23T23:57:27.569Z,86.95
